createdAt,value
2023-05-05T00:00:07.556Z,11.48
2023-05-05T00:02:43.256Z,11.44
2023-05-05T00:05:18.364Z,11.52
2023-05-05T00:08:00.015Z,11.58
2023-05-05T00:10:42.561Z,11.59
2023-05-05T00:13:23.731Z,11.47
2023-05-05T00:15:57.122Z,11.36
2023-05-05T00:18:56.590Z,11.40
2023-05-05T00:21:45.022Z,11.35
2023-05-05T00:24:18.809Z,11.39
2023-05-05T00:26:51.441Z,11.19
2023-05-05T00:29:27.977Z,11.06
2023-05-05T00:32:08.217Z,10.87
2023-05-05T00:34:41.208Z,10.74
2023-05-05T00:37:15.907Z,10.76
2023-05-05T00:39:53.554Z,10.84
2023-05-05T00:42:41.213Z,10.84
2023-05-05T00:45:26.913Z,10.78
2023-05-05T00:48:05.678Z,10.71
2023-05-05T00:50:52.655Z,10.69
2023-05-05T00:53:30.231Z,10.61
2023-05-05T00:56:24.086Z,10.50
2023-05-05T00:58:59.463Z,10.37
2023-05-05T01:01:44.358Z,10.28
2023-05-05T01:04:19.288Z,10.37
2023-05-05T01:07:03.282Z,10.37
2023-05-05T01:09:43.850Z,10.36
2023-05-05T01:12:30.658Z,10.41
2023-05-05T01:15:19.104Z,10.32
2023-05-05T01:18:10.521Z,10.37
2023-05-05T01:21:00.276Z,10.38
2023-05-05T01:24:01.263Z,10.38
2023-05-05T01:27:01.997Z,10.30
2023-05-05T01:30:20.855Z,10.20
2023-05-05T01:32:59.091Z,10.28
2023-05-05T01:35:45.402Z,10.23
2023-05-05T01:38:34.489Z,10.16
2023-05-05T01:41:40.392Z,10.19
2023-05-05T01:44:23.348Z,10.21
2023-05-05T01:47:08.987Z,10.25
2023-05-05T01:49:47.008Z,10.28
2023-05-05T01:52:27.873Z,10.16
2023-05-05T01:55:11.808Z,10.23
2023-05-05T01:58:01.310Z,10.39
2023-05-05T02:00:36.522Z,10.34
2023-05-05T02:03:13.983Z,10.24
2023-05-05T02:05:56.860Z,10.22
2023-05-05T02:08:30.469Z,10.20
2023-05-05T02:11:05.363Z,10.25
2023-05-05T02:13:41.833Z,10.13
2023-05-05T02:16:14.839Z,10.10
2023-05-05T02:18:48.944Z,10.08
2023-05-05T02:21:26.098Z,10.17
2023-05-05T02:24:05.152Z,10.34
2023-05-05T02:26:46.251Z,10.29
2023-05-05T02:29:27.978Z,10.12
2023-05-05T02:32:27.447Z,10.10
2023-05-05T02:35:04.841Z,10.08
2023-05-05T02:37:47.938Z,10.10
2023-05-05T02:40:26.898Z,10.15
2023-05-05T02:43:06.650Z,10.19
2023-05-05T02:45:40.288Z,10.13
2023-05-05T02:48:19.228Z,9.96
2023-05-05T02:50:50.860Z,9.88
2023-05-05T02:53:26.358Z,9.96
2023-05-05T02:56:09.601Z,9.95
2023-05-05T02:58:50.307Z,9.98
2023-05-05T03:01:42.095Z,9.96
2023-05-05T03:04:28.931Z,10.02
2023-05-05T03:07:11.030Z,10.04
2023-05-05T03:10:09.210Z,10.08
2023-05-05T03:13:06.910Z,10.16
2023-05-05T03:15:58.814Z,10.28
2023-05-05T03:18:42.055Z,10.44
2023-05-05T03:21:18.531Z,10.48
2023-05-05T03:25:02.417Z,10.46
2023-05-05T03:27:46.484Z,10.49
2023-05-05T03:30:37.022Z,10.46
2023-05-05T03:33:14.635Z,10.34
2023-05-05T03:35:48.272Z,10.30
2023-05-05T03:38:19.900Z,10.17
2023-05-05T03:40:51.695Z,10.25
2023-05-05T03:43:23.230Z,10.36
2023-05-05T03:45:54.968Z,10.41
2023-05-05T04:20:10.334Z,10.87
2023-05-05T04:23:10.909Z,10.99
2023-05-05T04:26:18.716Z,10.93
2023-05-05T04:32:33.047Z,10.93
2023-05-05T04:35:22.867Z,10.95
2023-05-05T04:38:16.571Z,11.03
2023-05-05T04:41:09.551Z,11.14
2023-05-05T04:44:00.168Z,11.30
2023-05-05T04:46:41.889Z,11.42
2023-05-05T04:49:18.770Z,11.51
2023-05-05T04:52:00.098Z,11.48
2023-05-05T04:54:46.237Z,11.39
2023-05-05T04:57:30.455Z,11.38
2023-05-05T05:00:20.196Z,11.40
2023-05-05T05:03:13.570Z,11.48
2023-05-05T05:06:04.998Z,11.53
2023-05-05T05:08:36.828Z,11.50
2023-05-05T05:11:14.335Z,11.66
2023-05-05T05:13:46.788Z,11.73
2023-05-05T05:16:18.615Z,11.84
2023-05-05T05:18:50.322Z,11.91
2023-05-05T05:21:25.644Z,11.81
2023-05-05T05:23:57.451Z,11.78
2023-05-05T05:26:29.290Z,12.03
2023-05-05T05:29:00.966Z,12.22
2023-05-05T05:31:34.798Z,12.38
2023-05-05T05:34:07.847Z,12.63
2023-05-05T05:36:39.525Z,12.74
2023-05-05T05:39:11.079Z,12.79
2023-05-05T05:41:42.561Z,12.97
2023-05-05T05:44:14.688Z,12.92
2023-05-05T05:46:46.314Z,12.95
2023-05-05T05:49:18.172Z,13.07
2023-05-05T05:51:51.208Z,13.39
2023-05-05T05:54:22.944Z,13.67
2023-05-05T05:56:54.540Z,13.92
2023-05-05T05:59:26.259Z,14.15
2023-05-05T06:01:59.500Z,14.40
2023-05-05T06:04:32.067Z,14.66
2023-05-05T06:07:03.738Z,14.91
2023-05-05T06:09:35.681Z,15.06
2023-05-05T06:12:08.676Z,15.23
2023-05-05T06:14:40.260Z,15.61
2023-05-05T06:17:13.462Z,15.75
2023-05-05T06:19:45.656Z,15.98
2023-05-05T06:22:17.178Z,16.28
2023-05-05T06:24:49.056Z,16.43
2023-05-05T06:27:20.759Z,16.62
2023-05-05T06:29:52.295Z,16.73
2023-05-05T06:32:25.374Z,16.86
2023-05-05T06:34:56.791Z,16.98
2023-05-05T06:37:28.753Z,17.18
2023-05-05T06:40:00.206Z,17.37
2023-05-05T06:42:32.586Z,17.56
2023-05-05T06:45:04.159Z,17.66
2023-05-05T06:47:36.667Z,17.91
2023-05-05T06:50:10.797Z,18.08
2023-05-05T06:52:42.856Z,18.36
2023-05-05T06:55:16.138Z,18.60
2023-05-05T06:57:48.637Z,18.64
2023-05-05T07:00:23.072Z,18.74
2023-05-05T07:02:54.830Z,18.84
2023-05-05T07:05:26.651Z,18.93
2023-05-05T07:07:59.101Z,19.15
2023-05-05T07:10:31.897Z,19.36
2023-05-05T07:13:03.473Z,19.67
2023-05-05T07:15:35.206Z,19.87
2023-05-05T07:18:07.181Z,19.74
2023-05-05T07:20:38.643Z,19.71
2023-05-05T07:23:10.274Z,19.75
2023-05-05T07:25:41.788Z,19.77
2023-05-05T07:28:13.553Z,19.75
2023-05-05T07:30:45.092Z,19.83
2023-05-05T07:33:18.846Z,19.97
2023-05-05T07:35:51.156Z,19.89
2023-05-05T07:38:22.750Z,19.73
2023-05-05T07:40:54.313Z,19.74
2023-05-05T07:43:26.222Z,19.87
2023-05-05T07:45:57.818Z,19.98
2023-05-05T07:48:30.336Z,20.12
2023-05-05T07:51:02.042Z,20.16
2023-05-05T07:53:33.633Z,20.38
2023-05-05T07:56:05.729Z,20.55
2023-05-05T07:58:37.439Z,20.60
2023-05-05T08:01:11.284Z,20.72
2023-05-05T08:03:43.090Z,20.84
2023-05-05T08:06:16.617Z,20.89
2023-05-05T08:08:48.313Z,21.07
2023-05-05T08:11:20.794Z,21.19
2023-05-05T08:13:52.227Z,21.28
2023-05-05T08:16:24.226Z,21.43
2023-05-05T08:18:55.822Z,21.58
2023-05-05T08:21:28.098Z,21.71
2023-05-05T08:23:59.537Z,21.76
2023-05-05T08:26:31.633Z,21.91
2023-05-05T08:29:03.296Z,22.07
2023-05-05T08:31:37.127Z,22.06
2023-05-05T08:34:09.748Z,22.12
2023-05-05T08:36:41.257Z,22.21
2023-05-05T08:39:12.965Z,22.22
2023-05-05T08:41:46.707Z,22.19
2023-05-05T08:44:19.506Z,21.91
2023-05-05T08:46:52.556Z,21.60
2023-05-05T08:49:27.608Z,21.54
2023-05-05T08:52:01.755Z,21.61
2023-05-05T08:54:36.170Z,21.56
2023-05-05T08:57:09.349Z,21.53
2023-05-05T08:59:41.778Z,21.40
2023-05-05T09:02:14.871Z,21.20
2023-05-05T09:04:46.941Z,21.23
2023-05-05T09:07:18.927Z,21.13
2023-05-05T09:09:51.554Z,21.13
2023-05-05T09:12:24.831Z,21.15
2023-05-05T09:14:59.298Z,20.97
2023-05-05T09:17:32.046Z,20.71
2023-05-05T09:20:08.624Z,20.65
2023-05-05T09:22:42.530Z,20.72
2023-05-05T09:25:17.392Z,20.74
2023-05-05T09:27:50.852Z,20.83
2023-05-05T09:30:28.998Z,20.96
2023-05-05T09:33:02.445Z,21.01
2023-05-05T09:35:52.300Z,21.05
2023-05-05T09:38:26.110Z,21.30
2023-05-05T09:40:58.016Z,21.52
2023-05-05T09:43:30.031Z,21.66
2023-05-05T09:46:10.945Z,21.92
2023-05-05T09:48:42.854Z,22.14
2023-05-05T09:51:14.407Z,22.25
2023-05-05T09:53:46.248Z,22.19
2023-05-05T09:56:18.367Z,21.91
2023-05-05T09:58:50.067Z,21.77
2023-05-05T10:01:26.424Z,21.61
2023-05-05T10:03:57.978Z,21.48
2023-05-05T10:06:44.572Z,21.60
2023-05-05T10:09:16.982Z,21.52
2023-05-05T10:11:50.987Z,21.29
2023-05-05T10:14:23.932Z,21.01
2023-05-05T10:16:56.853Z,20.69
2023-05-05T10:19:32.813Z,20.45
2023-05-05T10:22:09.779Z,20.15
2023-05-05T10:24:47.448Z,20.02
2023-05-05T10:27:21.744Z,20.00
2023-05-05T10:29:57.349Z,19.98
2023-05-05T10:32:54.349Z,19.88
2023-05-05T10:35:28.045Z,19.74
2023-05-05T10:38:01.958Z,19.77
2023-05-05T10:40:34.303Z,19.64
2023-05-05T10:43:07.909Z,19.48
2023-05-05T10:45:41.639Z,19.25
2023-05-05T10:48:20.627Z,18.97
2023-05-05T10:50:57.050Z,18.92
2023-05-05T10:54:09.195Z,18.94
2023-05-05T10:57:03.062Z,19.16
2023-05-05T11:00:26.148Z,19.24
2023-05-05T11:03:37.506Z,19.10
2023-05-05T11:06:15.957Z,19.24
2023-05-05T11:09:18.814Z,19.16
2023-05-05T11:12:14.261Z,19.26
2023-05-05T11:14:48.002Z,19.37
2023-05-05T11:17:53.081Z,19.24
2023-05-05T11:21:15.832Z,19.14
2023-05-05T11:23:53.020Z,19.25
2023-05-05T11:26:54.148Z,19.23
2023-05-05T11:29:26.447Z,19.36
2023-05-05T11:32:17.356Z,19.39
2023-05-05T11:34:53.099Z,19.39
2023-05-05T11:37:26.830Z,19.22
2023-05-05T11:40:22.633Z,19.32
2023-05-05T11:43:08.042Z,19.47
2023-05-05T11:46:09.720Z,19.44
2023-05-05T11:48:53.188Z,19.35
2023-05-05T11:51:25.269Z,19.17
2023-05-05T11:53:58.507Z,19.10
2023-05-05T11:56:30.941Z,18.94
2023-05-05T11:59:12.453Z,18.86
2023-05-05T12:01:45.959Z,18.83
2023-05-05T12:04:19.009Z,18.80
2023-05-05T12:06:52.934Z,18.82
2023-05-05T12:09:26.963Z,19.10
2023-05-05T12:12:01.524Z,19.39
2023-05-05T12:14:31.721Z,19.51
2023-05-05T12:17:08.553Z,19.39
2023-05-05T12:19:46.427Z,19.47
2023-05-05T12:22:24.833Z,19.35
2023-05-05T12:25:06.081Z,19.32
2023-05-05T12:27:39.121Z,19.37
2023-05-05T12:30:21.009Z,19.50
2023-05-05T12:33:01.928Z,19.49
2023-05-05T12:35:34.042Z,19.41
2023-05-05T12:38:06.367Z,19.25
2023-05-05T12:40:53.527Z,19.26
2023-05-05T12:43:32.967Z,19.36
2023-05-05T12:46:08.240Z,19.39
2023-05-05T12:48:41.968Z,19.30
2023-05-05T12:51:21.373Z,19.32
2023-05-05T12:54:07.550Z,19.40
2023-05-05T12:56:41.569Z,19.41
2023-05-05T12:59:14.742Z,19.24
2023-05-05T13:01:54.299Z,19.22
2023-05-05T13:04:27.606Z,19.15
2023-05-05T13:07:16.529Z,19.12
2023-05-05T13:09:49.651Z,19.16
2023-05-05T13:12:23.318Z,19.32
2023-05-05T13:14:57.055Z,19.30
2023-05-05T13:17:29.065Z,19.35
2023-05-05T13:20:01.949Z,19.26
2023-05-05T13:22:34.471Z,19.16
2023-05-05T13:25:07.655Z,19.17
2023-05-05T13:27:39.598Z,19.32
2023-05-05T13:30:23.029Z,19.35
2023-05-05T13:33:07.936Z,19.26
2023-05-05T13:35:39.922Z,19.13
2023-05-05T13:38:12.932Z,19.14
2023-05-05T13:40:45.598Z,18.89
2023-05-05T13:43:17.949Z,18.63
2023-05-05T13:45:49.878Z,18.57
2023-05-05T13:48:23.511Z,18.62
2023-05-05T13:50:56.526Z,18.82
2023-05-05T13:53:28.638Z,18.81
2023-05-05T13:56:01.167Z,18.72
2023-05-05T13:58:35.359Z,18.52
2023-05-05T14:01:08.260Z,18.44
2023-05-05T14:03:41.265Z,18.52
2023-05-05T14:06:13.592Z,18.51
2023-05-05T14:08:46.487Z,18.44
2023-05-05T14:11:18.652Z,18.57
2023-05-05T14:13:51.008Z,18.71
2023-05-05T14:16:23.084Z,18.63
2023-05-05T14:18:54.776Z,18.37
2023-05-05T14:21:27.884Z,18.26
2023-05-05T14:24:02.001Z,18.33
2023-05-05T14:26:34.138Z,18.24
2023-05-05T14:29:06.109Z,18.19
2023-05-05T14:31:39.407Z,18.20
2023-05-05T14:34:11.389Z,18.08
2023-05-05T14:36:44.612Z,18.08
2023-05-05T14:39:16.328Z,18.04
2023-05-05T14:41:48.747Z,18.12
2023-05-05T14:44:20.491Z,18.38
2023-05-05T14:46:52.936Z,18.48
2023-05-05T14:49:24.625Z,18.62
2023-05-05T14:51:56.946Z,18.68
2023-05-05T14:54:29.183Z,18.57
2023-05-05T14:57:01.213Z,18.39
2023-05-05T14:59:32.860Z,18.22
2023-05-05T15:02:04.588Z,18.21
2023-05-05T15:04:36.265Z,18.32
2023-05-05T15:07:07.868Z,18.22
2023-05-05T15:09:39.919Z,17.91
2023-05-05T15:12:12.076Z,17.71
2023-05-05T15:14:43.808Z,17.73
2023-05-05T15:17:15.477Z,17.62
2023-05-05T15:19:47.048Z,17.55
2023-05-05T15:22:18.845Z,17.58
2023-05-05T15:24:51.040Z,17.54
2023-05-05T15:27:25.048Z,17.47
2023-05-05T15:29:57.986Z,17.36
2023-05-05T15:32:30.958Z,17.43
2023-05-05T15:35:02.806Z,17.40
2023-05-05T15:37:34.765Z,17.51
2023-05-05T15:40:07.326Z,17.41
2023-05-05T15:42:39.395Z,17.30
2023-05-05T15:45:15.293Z,17.31
2023-05-05T15:47:48.189Z,17.20
2023-05-05T15:50:20.563Z,17.13
2023-05-05T15:52:52.227Z,17.09
2023-05-05T15:55:24.163Z,17.12
2023-05-05T15:57:55.953Z,17.04
2023-05-05T16:00:28.427Z,16.99
2023-05-05T16:03:00.300Z,17.11
2023-05-05T16:05:32.514Z,17.05
2023-05-05T16:08:09.919Z,16.97
2023-05-05T16:10:42.115Z,16.80
2023-05-05T16:13:14.319Z,16.61
2023-05-05T16:15:46.633Z,16.54
2023-05-05T16:18:18.358Z,16.68
2023-05-05T16:20:50.205Z,16.64
2023-05-05T16:23:24.663Z,16.46
2023-05-05T16:25:58.963Z,16.14
2023-05-05T16:28:31.298Z,16.19
2023-05-05T16:31:02.774Z,16.20
2023-05-05T16:33:36.322Z,16.02
2023-05-05T16:36:08.784Z,15.95
2023-05-05T16:38:41.646Z,16.04
2023-05-05T16:41:14.232Z,16.04
2023-05-05T16:43:46.585Z,16.10
2023-05-05T16:46:18.608Z,16.08
2023-05-05T16:48:50.233Z,16.17
2023-05-05T16:51:23.407Z,16.23
2023-05-05T16:53:55.346Z,16.26
2023-05-05T16:56:26.960Z,16.20
2023-05-05T16:58:58.555Z,16.24
2023-05-05T17:01:30.601Z,16.20
2023-05-05T17:04:02.924Z,16.11
2023-05-05T17:06:37.728Z,15.96
2023-05-05T17:09:09.461Z,15.80
2023-05-05T17:11:41.060Z,15.63
2023-05-05T17:14:12.503Z,15.54
2023-05-05T17:16:44.593Z,15.50
2023-05-05T17:19:16.220Z,15.31
2023-05-05T17:21:48.000Z,15.33
2023-05-05T17:24:19.645Z,15.40
2023-05-05T17:26:51.815Z,15.31
2023-05-05T17:29:23.684Z,15.26
2023-05-05T17:31:58.093Z,15.24
2023-05-05T17:34:30.232Z,15.17
2023-05-05T17:37:02.534Z,15.15
2023-05-05T17:39:36.177Z,15.02
2023-05-05T17:42:10.248Z,14.99
2023-05-05T17:44:42.322Z,15.06
2023-05-05T17:47:14.001Z,14.99
2023-05-05T17:49:46.454Z,14.89
2023-05-05T17:52:19.467Z,14.74
2023-05-05T17:54:52.518Z,14.66
2023-05-05T17:57:25.797Z,14.50
2023-05-05T17:59:57.432Z,14.39
2023-05-05T18:02:30.477Z,14.34
2023-05-05T18:05:02.327Z,14.34
2023-05-05T18:07:36.679Z,14.40
2023-05-05T18:10:13.482Z,14.42
2023-05-05T18:12:53.627Z,14.42
2023-05-05T18:15:26.483Z,14.42
2023-05-05T18:17:58.495Z,14.22
2023-05-05T18:20:31.610Z,14.02
2023-05-05T18:23:03.311Z,13.91
2023-05-05T18:25:35.762Z,13.97
2023-05-05T18:28:11.075Z,14.04
2023-05-05T18:30:44.057Z,14.06
2023-05-05T18:33:16.421Z,14.01
2023-05-05T18:35:54.749Z,13.82
2023-05-05T18:38:26.473Z,13.92
2023-05-05T18:41:00.201Z,13.78
2023-05-05T18:43:33.086Z,13.76
2023-05-05T18:46:07.302Z,13.66
2023-05-05T18:48:42.939Z,13.58
2023-05-05T18:51:14.956Z,13.69
2023-05-05T18:53:46.690Z,13.58
2023-05-05T18:56:19.576Z,13.46
2023-05-05T18:58:51.325Z,13.51
2023-05-05T19:01:23.720Z,13.50
2023-05-05T19:03:55.361Z,13.39
2023-05-05T19:06:27.664Z,13.28
2023-05-05T19:09:00.413Z,13.37
2023-05-05T19:11:32.067Z,13.26
2023-05-05T19:14:03.731Z,13.15
2023-05-05T19:16:35.461Z,13.08
2023-05-05T19:19:08.111Z,12.99
2023-05-05T19:21:40.080Z,13.06
2023-05-05T19:24:12.047Z,13.07
2023-05-05T19:26:44.396Z,12.90
2023-05-05T19:29:16.542Z,12.80
2023-05-05T19:31:49.993Z,12.83
2023-05-05T19:34:22.027Z,12.65
2023-05-05T19:36:53.883Z,12.50
2023-05-05T19:39:25.708Z,12.65
2023-05-05T19:41:57.636Z,12.53
2023-05-05T19:44:29.338Z,12.52
2023-05-05T19:47:01.231Z,12.46
2023-05-05T19:49:33.192Z,12.44
2023-05-05T19:52:07.969Z,12.55
2023-05-05T19:54:37.840Z,12.55
2023-05-05T19:57:09.852Z,12.59
2023-05-05T19:59:42.150Z,12.50
2023-05-05T20:02:15.615Z,12.43
2023-05-05T20:04:47.755Z,12.31
2023-05-05T20:07:22.434Z,12.22
2023-05-05T20:09:55.989Z,12.16
2023-05-05T20:12:28.907Z,12.35
2023-05-05T20:15:01.158Z,12.30
2023-05-05T20:17:33.343Z,12.27
2023-05-05T20:20:05.510Z,12.35
2023-05-05T20:22:40.607Z,12.32
2023-05-05T20:25:13.285Z,12.26
2023-05-05T20:27:46.351Z,12.20
2023-05-05T20:30:18.504Z,12.19
2023-05-05T20:32:50.309Z,12.08
2023-05-05T20:35:22.677Z,12.08
2023-05-05T20:37:54.536Z,12.07
2023-05-05T20:40:26.602Z,12.09
2023-05-05T20:43:00.000Z,12.13
2023-05-05T20:45:35.290Z,12.02
2023-05-05T20:48:10.270Z,11.95
2023-05-05T20:50:42.965Z,11.98
2023-05-05T20:53:15.447Z,12.01
2023-05-05T20:55:48.100Z,11.93
2023-05-05T20:58:20.407Z,11.83
2023-05-05T21:00:52.727Z,11.76
2023-05-05T21:03:24.580Z,11.79
2023-05-05T21:05:56.410Z,11.86
2023-05-05T21:08:29.420Z,11.86
2023-05-05T21:11:01.094Z,11.94
2023-05-05T21:13:32.851Z,12.02
2023-05-05T21:16:05.143Z,11.81
2023-05-05T21:18:37.849Z,11.82
2023-05-05T21:21:11.028Z,11.78
2023-05-05T21:23:44.284Z,11.70
2023-05-05T21:26:16.087Z,11.90
2023-05-05T21:28:48.236Z,11.78
2023-05-05T21:31:22.435Z,11.80
2023-05-05T21:33:54.581Z,11.85
2023-05-05T21:36:27.714Z,11.82
2023-05-05T21:39:00.432Z,11.75
2023-05-05T21:41:32.231Z,11.61
2023-05-05T21:44:04.103Z,11.46
2023-05-05T21:46:35.814Z,11.43
2023-05-05T21:49:15.216Z,11.51
2023-05-05T21:51:47.435Z,11.47
2023-05-05T21:54:19.707Z,11.43
2023-05-05T21:56:52.261Z,11.33
2023-05-05T21:59:23.721Z,11.32
2023-05-05T22:01:55.626Z,11.38
2023-05-05T22:04:28.080Z,11.49
2023-05-05T22:06:59.902Z,11.62
2023-05-05T22:09:31.603Z,11.48
2023-05-05T22:12:04.130Z,11.39
2023-05-05T22:14:36.143Z,11.26
2023-05-05T22:17:07.748Z,11.07
2023-05-05T22:19:39.681Z,11.08
2023-05-05T22:22:11.730Z,11.00
2023-05-05T22:24:49.015Z,11.09
2023-05-05T22:27:20.977Z,11.15
2023-05-05T22:30:02.128Z,11.03
2023-05-05T22:32:38.289Z,10.89
2023-05-05T22:35:12.402Z,10.84
2023-05-05T22:37:44.654Z,10.72
2023-05-05T22:40:17.246Z,10.58
2023-05-05T22:42:48.967Z,10.71
2023-05-05T22:45:21.176Z,10.61
2023-05-05T22:47:53.057Z,10.39
2023-05-05T22:50:24.730Z,10.28
2023-05-05T22:52:56.385Z,10.41
2023-05-05T22:55:27.957Z,10.50
2023-05-05T22:58:00.615Z,10.57
2023-05-05T23:00:32.925Z,10.61
2023-05-05T23:03:05.345Z,10.61
2023-05-05T23:05:36.965Z,10.51
2023-05-05T23:08:08.844Z,10.41
2023-05-05T23:10:40.621Z,10.36
2023-05-05T23:13:15.842Z,10.16
2023-05-05T23:15:53.994Z,9.96
2023-05-05T23:18:29.079Z,9.82
2023-05-05T23:21:03.761Z,9.79
2023-05-05T23:23:37.394Z,9.84
2023-05-05T23:26:12.961Z,9.82
2023-05-05T23:28:46.530Z,9.75
2023-05-05T23:31:24.798Z,9.63
2023-05-05T23:33:58.566Z,9.66
2023-05-05T23:36:31.917Z,9.58
2023-05-05T23:39:04.094Z,9.56
2023-05-05T23:41:35.773Z,9.72
2023-05-05T23:44:08.226Z,9.78
2023-05-05T23:46:40.073Z,9.77
2023-05-05T23:49:12.149Z,9.68
2023-05-05T23:51:43.767Z,9.68
2023-05-05T23:54:16.071Z,9.52
2023-05-05T23:56:49.106Z,9.46
2023-05-05T23:59:21.003Z,9.27
